Time;durP1;ratioP1;P1;durP2;ratioP2;P2;SDS_P1;SDS_P2;PMS_P1;PMS_P2;Temp;Humidity;BMP_temperature;BMP_pressure;BME280_temperature;BME280_humidity;BME280_pressure;Samples;Min_cycle;Max_cycle;Signal;HPM_P1;HPM_P2
2023/07/23 00:00:27;;;;;;;5.10;4.70;;;19.40;99.90;;;;;;5127321;27;20643;-83
2023/07/23 00:02:54;;;;;;;5.00;4.63;;;19.40;99.90;;;;;;5127502;27;20694;-83
2023/07/23 00:05:23;;;;;;;5.07;4.73;;;19.40;99.90;;;;;;5127426;27;20212;-82
2023/07/23 00:07:50;;;;;;;4.87;4.47;;;19.40;99.90;;;;;;5108787;27;20241;-83
2023/07/23 00:10:17;;;;;;;6.00;4.50;;;19.40;99.90;;;;;;5106937;28;20208;-82
2023/07/23 00:12:45;;;;;;;5.30;4.90;;;19.40;99.90;;;;;;5107256;27;20216;-82
2023/07/23 00:15:13;;;;;;;4.30;4.00;;;19.40;99.90;;;;;;5125129;27;20217;-82
2023/07/23 00:17:40;;;;;;;4.97;4.50;;;19.40;99.90;;;;;;5119837;27;20202;-80
2023/07/23 00:20:09;;;;;;;5.43;4.60;;;19.40;99.90;;;;;;5120122;27;20230;-81
2023/07/23 00:22:36;;;;;;;7.53;4.50;;;19.30;99.90;;;;;;5126453;27;20204;-81
2023/07/23 00:25:03;;;;;;;4.93;4.53;;;19.30;99.90;;;;;;5118487;27;20686;-80
2023/07/23 00:27:30;;;;;;;5.10;4.70;;;19.30;99.90;;;;;;5119680;27;20358;-81
2023/07/23 00:29:59;;;;;;;5.37;4.30;;;19.30;99.90;;;;;;5125730;27;20289;-80
2023/07/23 00:32:25;;;;;;;5.27;4.83;;;19.30;99.90;;;;;;5121877;27;20205;-80
2023/07/23 00:34:52;;;;;;;4.80;4.33;;;19.30;99.90;;;;;;5125508;27;20211;-79
2023/07/23 00:37:19;;;;;;;4.80;4.47;;;19.30;99.90;;;;;;5113856;27;20225;-80
2023/07/23 00:39:46;;;;;;;4.83;4.50;;;19.30;99.90;;;;;;5117316;27;20313;-79
2023/07/23 00:42:13;;;;;;;5.13;4.63;;;19.30;99.90;;;;;;5119683;27;20295;-80
2023/07/23 00:44:40;;;;;;;5.33;4.83;;;19.30;99.90;;;;;;5119105;27;20203;-79
2023/07/23 00:47:08;;;;;;;4.73;4.33;;;19.30;99.90;;;;;;5118637;27;20224;-80
2023/07/23 00:49:35;;;;;;;4.60;4.20;;;19.20;99.90;;;;;;5116945;27;20233;-80
2023/07/23 00:52:02;;;;;;;5.40;4.40;;;19.30;99.90;;;;;;5106127;28;20202;-79
2023/07/23 00:54:29;;;;;;;5.17;4.67;;;19.20;99.90;;;;;;5106464;28;20209;-77
2023/07/23 00:56:57;;;;;;;5.33;4.83;;;19.20;99.90;;;;;;5106391;28;20210;-79
2023/07/23 00:59:24;;;;;;;5.50;4.30;;;19.20;99.90;;;;;;5106130;28;20238;-79
2023/07/23 01:01:50;;;;;;;5.07;4.67;;;19.20;99.90;;;;;;5108100;27;20201;-79
2023/07/23 01:04:19;;;;;;;4.87;4.47;;;19.20;99.90;;;;;;5107500;27;20425;-79
2023/07/23 01:06:46;;;;;;;4.93;4.43;;;19.20;99.90;;;;;;5106675;28;20224;-78
2023/07/23 01:09:15;;;;;;;4.40;4.10;;;19.20;99.90;;;;;;5106072;28;20263;-79
2023/07/23 01:11:42;;;;;;;5.13;4.50;;;19.20;99.90;;;;;;5106259;28;20202;-79
2023/07/23 01:14:09;;;;;;;4.87;4.30;;;19.20;99.90;;;;;;5105837;28;20305;-79
2023/07/23 01:16:37;;;;;;;5.30;4.80;;;19.10;99.90;;;;;;5106565;28;20217;-79
2023/07/23 01:19:04;;;;;;;4.97;4.57;;;19.10;99.90;;;;;;5118247;27;20237;-77
2023/07/23 01:21:33;;;;;;;4.93;4.60;;;19.10;99.90;;;;;;5112289;27;20672;-77
2023/07/23 01:24:01;;;;;;;4.60;4.30;;;19.00;99.90;;;;;;5112428;28;20293;-77
2023/07/23 01:26:28;;;;;;;4.70;4.40;;;18.90;99.90;;;;;;5112461;28;20216;-78
2023/07/23 01:28:54;;;;;;;4.83;4.40;;;18.80;99.90;;;;;;5112333;28;20206;-80
2023/07/23 01:31:21;;;;;;;5.87;4.57;;;18.70;99.90;;;;;;5112636;28;20208;-80
2023/07/23 01:33:48;;;;;;;5.40;4.63;;;18.50;99.90;;;;;;5112510;28;20209;-80
2023/07/23 01:36:17;;;;;;;5.00;4.60;;;18.30;99.90;;;;;;5112557;28;20208;-79
2023/07/23 01:38:44;;;;;;;5.20;4.83;;;18.20;99.90;;;;;;5132704;27;20311;-73
2023/07/23 01:41:12;;;;;;;5.30;4.50;;;18.10;99.90;;;;;;5128866;27;20744;-74
2023/07/23 01:43:40;;;;;;;5.23;4.83;;;18.00;99.90;;;;;;5112045;28;20202;-74
2023/07/23 01:46:07;;;;;;;4.97;4.57;;;18.00;99.90;;;;;;5112065;28;20301;-77
2023/07/23 01:48:33;;;;;;;4.90;4.47;;;17.90;99.90;;;;;;5114899;27;20234;-76
2023/07/23 01:51:00;;;;;;;8.13;4.77;;;18.00;99.90;;;;;;5124524;27;20198;-75
2023/07/23 01:53:28;;;;;;;5.27;4.87;;;17.90;99.90;;;;;;5112531;28;20225;-75
2023/07/23 01:55:58;;;;;;;5.17;4.77;;;17.90;99.90;;;;;;5115310;27;20198;-75
2023/07/23 01:58:26;;;;;;;5.20;4.70;;;17.80;99.90;;;;;;5130876;27;20782;-76
2023/07/23 02:00:57;;;;;;;5.43;5.00;;;17.80;99.90;;;;;;5112301;28;20230;-76
2023/07/23 02:03:24;;;;;;;5.10;4.70;;;17.80;99.90;;;;;;5112437;28;20202;-75
2023/07/23 02:05:56;;;;;;;5.20;4.80;;;17.80;99.90;;;;;;5112086;28;20248;-76
2023/07/23 02:08:23;;;;;;;5.57;5.07;;;17.80;99.90;;;;;;5112264;28;20294;-75
2023/07/23 02:10:50;;;;;;;5.30;4.90;;;17.90;99.90;;;;;;5115561;27;20639;-78
2023/07/23 02:13:17;;;;;;;5.30;4.80;;;18.00;99.90;;;;;;5132990;27;20219;-78
2023/07/23 02:15:45;;;;;;;5.47;5.07;;;18.00;99.90;;;;;;5112263;28;20540;-78
2023/07/23 02:18:12;;;;;;;7.77;4.57;;;18.00;99.90;;;;;;5112210;28;20297;-78
2023/07/23 02:20:39;;;;;;;5.13;4.73;;;18.00;99.90;;;;;;5111912;28;20313;-78
2023/07/23 02:23:06;;;;;;;5.43;4.93;;;18.00;99.90;;;;;;5112316;28;20208;-78
2023/07/23 02:25:37;;;;;;;5.40;5.00;;;18.00;99.90;;;;;;5111956;28;20571;-77
2023/07/23 02:28:05;;;;;;;5.13;4.70;;;18.00;99.90;;;;;;5111840;28;20194;-77
2023/07/23 02:30:32;;;;;;;5.87;5.37;;;18.00;99.90;;;;;;5112168;28;20301;-77
2023/07/23 02:33:00;;;;;;;5.20;4.80;;;18.00;99.90;;;;;;5110708;27;20285;-77
2023/07/23 02:35:27;;;;;;;5.30;4.90;;;18.00;99.90;;;;;;5129360;27;20292;-77
2023/07/23 02:37:53;;;;;;;5.90;4.90;;;18.10;99.90;;;;;;5129026;27;20997;-78
2023/07/23 02:40:21;;;;;;;5.33;4.93;;;18.00;99.90;;;;;;5123160;27;21066;-77
2023/07/23 02:42:50;;;;;;;5.30;4.93;;;18.10;99.90;;;;;;5108705;28;20206;-77
2023/07/23 02:45:17;;;;;;;6.47;5.87;;;18.10;99.90;;;;;;5108880;28;20301;-77
2023/07/23 02:47:43;;;;;;;6.03;5.53;;;18.00;99.90;;;;;;5108017;28;20246;-77
2023/07/23 02:50:12;;;;;;;6.23;5.73;;;18.00;99.90;;;;;;5123247;27;20205;-77
2023/07/23 02:52:39;;;;;;;5.57;5.07;;;18.00;99.90;;;;;;5108364;28;20212;-77
2023/07/23 02:55:06;;;;;;;6.07;5.50;;;17.90;99.90;;;;;;5117334;27;20316;-78
2023/07/23 02:57:33;;;;;;;7.37;5.83;;;17.90;99.90;;;;;;5129031;27;20656;-78
2023/07/23 03:00:00;;;;;;;6.20;5.70;;;17.70;99.90;;;;;;5109915;27;20334;-78
2023/07/23 03:02:26;;;;;;;6.40;5.90;;;17.50;99.90;;;;;;5108146;28;20713;-79
2023/07/23 03:04:53;;;;;;;6.30;5.80;;;17.30;99.90;;;;;;5107674;28;20630;-77
2023/07/23 03:07:22;;;;;;;6.13;5.57;;;17.10;99.90;;;;;;5108260;28;20224;-78
2023/07/23 03:09:49;;;;;;;6.47;5.93;;;17.10;99.90;;;;;;5108567;28;20233;-79
2023/07/23 03:12:15;;;;;;;5.90;5.40;;;17.00;99.90;;;;;;5119186;27;20206;-79
2023/07/23 03:14:43;;;;;;;6.50;5.90;;;17.00;99.90;;;;;;5128290;27;20211;-79
2023/07/23 03:17:11;;;;;;;6.43;5.93;;;17.00;99.90;;;;;;5128289;27;20206;-79
2023/07/23 03:19:37;;;;;;;9.00;6.33;;;17.10;99.90;;;;;;5128415;27;20324;-79
2023/07/23 03:22:04;;;;;;;6.27;5.77;;;17.20;99.90;;;;;;5127665;27;20298;-78
2023/07/23 03:24:33;;;;;;;6.60;6.00;;;17.30;99.90;;;;;;5128383;27;20219;-78
2023/07/23 03:26:59;;;;;;;6.63;6.13;;;17.40;99.90;;;;;;5128158;27;20210;-78
2023/07/23 03:29:26;;;;;;;6.90;6.23;;;17.40;99.90;;;;;;5128271;27;20205;-79
2023/07/23 03:31:53;;;;;;;6.53;6.10;;;17.40;99.90;;;;;;5127771;27;20202;-79
2023/07/23 03:34:20;;;;;;;6.47;5.93;;;17.50;99.90;;;;;;5128289;27;20198;-78
2023/07/23 03:36:47;;;;;;;6.53;6.03;;;17.50;99.90;;;;;;5128549;27;20212;-79
2023/07/23 03:39:17;;;;;;;6.83;6.20;;;17.50;99.90;;;;;;5127935;27;20329;-79
2023/07/23 03:41:46;;;;;;;6.77;6.27;;;17.50;99.90;;;;;;5127972;27;20284;-78
2023/07/23 03:44:13;;;;;;;7.80;7.03;;;17.50;99.90;;;;;;5127525;27;20201;-79
2023/07/23 03:46:43;;;;;;;7.27;6.57;;;17.40;99.90;;;;;;5128169;27;20235;-77
2023/07/23 03:49:11;;;;;;;6.67;6.10;;;17.40;99.90;;;;;;5127963;27;20288;-77
2023/07/23 03:51:37;;;;;;;7.50;6.70;;;17.40;99.90;;;;;;5117752;27;20289;-77
2023/07/23 03:54:04;;;;;;;6.87;6.37;;;17.50;99.90;;;;;;5127215;27;20317;-78
2023/07/23 03:56:31;;;;;;;7.53;6.57;;;17.50;99.90;;;;;;5127577;27;20232;-78
2023/07/23 03:58:59;;;;;;;7.07;6.57;;;17.40;99.90;;;;;;5126806;27;20251;-77
2023/07/23 04:01:27;;;;;;;6.70;6.20;;;17.30;99.90;;;;;;5127936;27;20229;-78
2023/07/23 04:03:54;;;;;;;7.60;7.00;;;17.20;99.90;;;;;;5127364;27;20209;-78
2023/07/23 04:06:20;;;;;;;7.43;6.83;;;17.20;99.90;;;;;;5127126;27;20232;-80
2023/07/23 04:08:47;;;;;;;6.80;6.30;;;17.20;99.90;;;;;;5140766;27;20204;-80
2023/07/23 04:11:14;;;;;;;6.70;6.03;;;17.20;99.90;;;;;;5140738;27;20757;-80
2023/07/23 04:13:41;;;;;;;6.83;6.33;;;17.20;99.90;;;;;;5114273;27;20193;-80
2023/07/23 04:16:10;;;;;;;6.77;6.03;;;17.20;99.90;;;;;;5127642;27;20453;-80
2023/07/23 04:18:46;;;;;;;6.70;6.17;;;17.20;99.90;;;;;;5125198;27;20582;-80
2023/07/23 04:21:13;;;;;;;6.90;6.43;;;17.20;99.90;;;;;;5107221;28;20222;-80
2023/07/23 04:23:40;;;;;;;6.90;6.30;;;17.10;99.90;;;;;;5106925;28;20238;-80
2023/07/23 04:26:07;;;;;;;7.00;6.40;;;17.10;99.90;;;;;;5113213;27;20216;-80
2023/07/23 04:28:34;;;;;;;7.27;6.57;;;17.10;99.90;;;;;;5107014;28;20210;-80
2023/07/23 04:31:01;;;;;;;7.80;6.40;;;17.00;99.90;;;;;;5106603;28;20217;-81
2023/07/23 04:33:29;;;;;;;7.27;6.67;;;16.90;99.90;;;;;;5106958;28;20293;-81
2023/07/23 04:35:56;;;;;;;7.33;6.73;;;16.90;99.90;;;;;;5106489;28;20235;-79
2023/07/23 04:38:22;;;;;;;6.80;6.30;;;16.80;99.90;;;;;;5106723;28;20292;-79
2023/07/23 04:40:50;;;;;;;7.27;6.53;;;16.90;99.90;;;;;;5106663;28;20234;-77
2023/07/23 04:43:16;;;;;;;6.90;6.30;;;16.80;99.90;;;;;;5106253;28;21049;-78
2023/07/23 04:45:43;;;;;;;7.40;6.70;;;16.80;99.90;;;;;;5106358;28;20214;-78
2023/07/23 04:48:12;;;;;;;6.87;6.37;;;16.80;99.90;;;;;;5109734;27;20853;-78
2023/07/23 04:50:40;;;;;;;8.73;7.20;;;16.60;99.90;;;;;;5141020;27;20240;-80
2023/07/23 04:53:08;;;;;;;7.47;6.77;;;16.60;99.90;;;;;;5126646;27;20264;-79
2023/07/23 04:55:35;;;;;;;7.67;7.03;;;16.50;99.90;;;;;;5126732;27;20212;-80
2023/07/23 04:58:02;;;;;;;7.93;7.33;;;16.40;99.90;;;;;;5126472;27;20320;-79
2023/07/23 05:00:29;;;;;;;7.40;6.80;;;16.30;99.90;;;;;;5126555;27;20260;-77
2023/07/23 05:02:56;;;;;;;7.57;6.87;;;16.30;99.90;;;;;;5133833;27;20284;-77
2023/07/23 05:05:23;;;;;;;8.03;6.60;;;16.30;99.90;;;;;;5115461;27;20208;-79
2023/07/23 05:07:51;;;;;;;7.50;6.70;;;16.30;99.90;;;;;;5121510;27;20233;-79
2023/07/23 05:10:18;;;;;;;7.57;6.87;;;16.20;99.90;;;;;;5126984;27;20280;-78
2023/07/23 05:12:45;;;;;;;7.47;6.77;;;16.30;99.90;;;;;;5126685;27;20213;-79
2023/07/23 05:15:13;;;;;;;7.40;6.67;;;16.30;99.90;;;;;;5126296;27;20311;-78
2023/07/23 05:17:41;;;;;;;7.60;6.87;;;16.30;99.90;;;;;;5126937;27;20202;-79
2023/07/23 05:20:09;;;;;;;8.50;7.53;;;16.30;99.90;;;;;;5126394;27;20699;-79
2023/07/23 05:22:39;;;;;;;7.47;6.83;;;16.50;99.90;;;;;;5125451;28;20664;-79
2023/07/23 05:25:08;;;;;;;6.93;6.33;;;16.60;99.90;;;;;;5119959;28;20212;-78
2023/07/23 05:27:35;;;;;;;7.10;6.60;;;16.70;99.90;;;;;;5106662;28;20202;-79
2023/07/23 05:30:03;;;;;;;7.97;6.60;;;16.80;99.90;;;;;;5106209;28;20206;-79
2023/07/23 05:32:30;;;;;;;7.07;6.37;;;16.90;99.90;;;;;;5111163;28;20296;-79
2023/07/23 05:34:57;;;;;;;6.60;6.00;;;16.80;99.90;;;;;;5127215;28;20296;-79
2023/07/23 05:37:24;;;;;;;6.97;6.37;;;16.90;99.90;;;;;;5126699;28;20667;-80
2023/07/23 05:39:53;;;;;;;7.07;6.47;;;17.00;99.90;;;;;;5126799;28;20204;-79
2023/07/23 05:42:21;;;;;;;7.50;6.80;;;17.10;99.90;;;;;;5116696;28;20202;-79
2023/07/23 05:44:48;;;;;;;7.20;6.60;;;17.00;99.90;;;;;;5109629;27;20552;-80
2023/07/23 05:47:15;;;;;;;7.57;6.97;;;16.90;99.90;;;;;;5106327;28;20312;-79
2023/07/23 05:49:42;;;;;;;6.73;6.13;;;17.00;99.90;;;;;;5118013;27;20667;-79
2023/07/23 05:52:09;;;;;;;6.60;6.03;;;17.10;99.90;;;;;;5108222;28;20660;-79
2023/07/23 05:54:36;;;;;;;8.00;7.10;;;17.20;99.90;;;;;;5106327;28;20294;-78
2023/07/23 05:57:03;;;;;;;8.20;7.43;;;17.20;99.90;;;;;;5106189;28;20292;-78
2023/07/23 05:59:31;;;;;;;7.07;6.50;;;17.30;99.90;;;;;;5125777;27;20677;-78
2023/07/23 06:01:58;;;;;;;8.37;6.70;;;17.40;99.90;;;;;;5127053;27;20730;-78
2023/07/23 06:04:25;;;;;;;6.97;6.37;;;17.50;99.90;;;;;;5126700;28;20614;-78
2023/07/23 06:06:51;;;;;;;6.97;6.37;;;17.60;99.90;;;;;;5128964;27;20209;-79
2023/07/23 06:09:18;;;;;;;6.40;5.80;;;17.80;99.90;;;;;;5131004;27;20296;-78
2023/07/23 06:11:45;;;;;;;6.67;6.03;;;17.90;99.90;;;;;;5130486;27;20208;-79
2023/07/23 06:14:12;;;;;;;6.50;5.87;;;18.10;99.90;;;;;;5130340;27;20209;-78
2023/07/23 06:16:40;;;;;;;6.37;5.83;;;18.20;99.90;;;;;;5129980;27;20690;-78
2023/07/23 06:19:07;;;;;;;8.40;6.63;;;18.30;99.90;;;;;;5124371;27;20296;-79
2023/07/23 06:21:34;;;;;;;7.23;6.07;;;18.40;99.90;;;;;;5129206;27;20231;-78
2023/07/23 06:24:01;;;;;;;6.50;5.93;;;18.50;99.90;;;;;;5129451;27;20304;-78
2023/07/23 06:26:28;;;;;;;6.53;6.03;;;18.50;99.90;;;;;;5129549;27;20285;-78
2023/07/23 06:28:55;;;;;;;6.27;5.77;;;18.50;99.90;;;;;;5129527;27;20660;-78
2023/07/23 06:31:22;;;;;;;7.53;6.23;;;18.60;99.90;;;;;;5130258;27;20229;-80
2023/07/23 06:33:50;;;;;;;6.90;6.20;;;18.60;99.90;;;;;;5129563;27;20988;-79
2023/07/23 06:36:17;;;;;;;6.70;6.03;;;18.50;99.90;;;;;;5129855;27;20285;-78
2023/07/23 06:38:45;;;;;;;5.90;5.40;;;18.50;99.90;;;;;;5129319;27;20663;-79
2023/07/23 06:41:11;;;;;;;6.00;5.50;;;18.50;99.90;;;;;;5129249;27;20272;-79
2023/07/23 06:43:38;;;;;;;6.23;5.70;;;18.60;99.90;;;;;;5129211;27;20672;-78
2023/07/23 06:46:05;;;;;;;5.87;5.47;;;18.70;99.90;;;;;;5129132;27;20312;-78
2023/07/23 06:48:32;;;;;;;6.07;5.17;;;18.70;99.90;;;;;;5129279;27;20205;-78
2023/07/23 06:51:00;;;;;;;5.47;5.07;;;18.80;99.90;;;;;;5128907;27;20292;-78
2023/07/23 06:53:27;;;;;;;5.90;5.50;;;18.90;99.90;;;;;;5129626;27;20625;-77
2023/07/23 06:56:02;;;;;;;6.50;5.70;;;19.00;99.90;;;;;;5117933;27;20574;-76
2023/07/23 06:58:30;;;;;;;5.73;5.07;;;19.10;99.90;;;;;;5107436;28;20324;-76
2023/07/23 07:00:57;;;;;;;5.70;5.20;;;19.20;99.90;;;;;;5108344;28;20258;-79
2023/07/23 07:03:24;;;;;;;5.67;5.10;;;19.20;99.90;;;;;;5127833;27;20202;-79
2023/07/23 07:05:51;;;;;;;6.33;5.83;;;19.30;99.90;;;;;;5128940;27;20212;-79
2023/07/23 07:08:20;;;;;;;5.90;5.50;;;19.40;99.90;;;;;;5129498;27;20212;-78
2023/07/23 07:10:47;;;;;;;6.50;6.00;;;19.40;99.90;;;;;;5127319;27;20207;-78
2023/07/23 07:13:14;;;;;;;6.20;5.80;;;19.50;99.90;;;;;;5128758;27;20213;-77
2023/07/23 07:15:41;;;;;;;6.00;5.50;;;19.50;99.90;;;;;;5113093;27;20224;-78
2023/07/23 07:18:08;;;;;;;6.47;5.97;;;19.50;99.90;;;;;;5107159;28;20210;-78
2023/07/23 07:20:35;;;;;;;5.97;5.47;;;19.50;99.90;;;;;;5108392;28;20202;-78
2023/07/23 07:23:02;;;;;;;9.00;5.37;;;19.50;99.90;;;;;;5124412;27;20293;-78
2023/07/23 07:25:30;;;;;;;6.10;5.60;;;19.60;99.90;;;;;;5128291;27;20201;-77
2023/07/23 07:27:57;;;;;;;5.63;5.23;;;19.60;99.90;;;;;;5127913;27;20292;-78
2023/07/23 07:30:24;;;;;;;5.13;4.83;;;19.60;99.90;;;;;;5120521;27;20233;-76
2023/07/23 07:32:52;;;;;;;5.23;4.83;;;19.60;99.90;;;;;;5107454;28;20294;-77
2023/07/23 07:35:19;;;;;;;5.00;4.60;;;19.70;99.90;;;;;;5107718;27;20660;-79
2023/07/23 07:37:46;;;;;;;5.33;5.00;;;19.70;99.90;;;;;;5110622;27;20206;-79
2023/07/23 07:40:14;;;;;;;4.77;4.37;;;19.80;99.90;;;;;;5107645;28;20211;-78
2023/07/23 07:42:42;;;;;;;5.67;5.00;;;19.90;99.90;;;;;;5120199;27;20332;-79
2023/07/23 07:45:10;;;;;;;5.83;5.33;;;19.90;99.90;;;;;;5127949;27;20201;-80
2023/07/23 07:47:37;;;;;;;6.80;6.03;;;19.90;99.90;;;;;;5128320;27;20284;-78
2023/07/23 07:50:06;;;;;;;5.97;5.50;;;20.00;99.90;;;;;;5113003;27;20650;-79
2023/07/23 07:52:33;;;;;;;6.27;5.77;;;20.00;99.90;;;;;;5121643;27;20867;-77
2023/07/23 07:55:00;;;;;;;5.20;4.80;;;20.00;99.90;;;;;;5127769;27;20695;-78
2023/07/23 07:57:27;;;;;;;5.97;5.47;;;20.00;99.90;;;;;;5128221;27;20223;-80
2023/07/23 07:59:56;;;;;;;6.57;5.97;;;19.90;99.90;;;;;;5127084;27;20332;-79
2023/07/23 08:02:24;;;;;;;5.87;5.37;;;19.90;99.90;;;;;;5117430;27;20240;-79
2023/07/23 08:04:51;;;;;;;5.80;5.30;;;19.90;99.90;;;;;;5120141;27;20284;-82
2023/07/23 08:07:21;;;;;;;7.13;5.17;;;19.80;99.90;;;;;;5127343;27;20348;-77
2023/07/23 08:09:49;;;;;;;5.07;4.67;;;19.70;99.90;;;;;;5127396;27;20262;-77
2023/07/23 08:12:18;;;;;;;4.87;4.53;;;19.70;99.90;;;;;;5127255;27;20201;-77
2023/07/23 08:14:46;;;;;;;5.50;5.00;;;19.80;99.90;;;;;;5127503;27;20582;-77
2023/07/23 08:17:15;;;;;;;4.70;4.30;;;19.80;99.90;;;;;;5127149;27;21086;-77
2023/07/23 08:19:42;;;;;;;5.40;4.50;;;19.90;99.90;;;;;;5127285;27;20313;-77
2023/07/23 08:22:10;;;;;;;5.27;4.87;;;19.90;99.90;;;;;;5121882;27;20234;-78
2023/07/23 08:24:37;;;;;;;4.93;4.60;;;19.90;99.90;;;;;;5106934;28;20212;-78
2023/07/23 08:27:06;;;;;;;4.83;4.53;;;20.00;99.90;;;;;;5106650;28;20301;-75
2023/07/23 08:29:35;;;;;;;5.13;4.73;;;20.00;99.90;;;;;;5105220;28;20198;-79
2023/07/23 08:32:03;;;;;;;5.63;4.73;;;20.00;99.90;;;;;;5118501;27;20692;-76
2023/07/23 08:34:31;;;;;;;4.70;4.40;;;20.10;99.90;;;;;;5106829;28;20463;-82
2023/07/23 08:36:59;;;;;;;4.80;4.50;;;20.10;99.90;;;;;;5106531;28;20213;-83
2023/07/23 08:39:26;;;;;;;4.40;4.00;;;20.20;99.90;;;;;;5106831;28;20258;-83
2023/07/23 08:42:13;;;;;;;4.67;4.37;;;20.30;99.90;;;;;;5106030;27;20229;-83
2023/07/23 08:45:05;;;;;;;4.60;4.23;;;20.30;99.90;;;;;;5105177;28;20190;-83
2023/07/23 08:47:38;;;;;;;4.60;4.30;;;20.40;99.90;;;;;;5105588;27;20208;-83
2023/07/23 08:50:07;;;;;;;4.50;4.20;;;20.40;99.90;;;;;;5123805;27;20233;-83
2023/07/23 08:52:36;;;;;;;4.70;4.30;;;20.50;99.90;;;;;;5125100;27;20320;-83
2023/07/23 08:55:03;;;;;;;4.97;4.57;;;20.60;99.90;;;;;;5118620;27;20751;-81
2023/07/23 08:57:33;;;;;;;5.32;4.07;;;20.70;99.90;;;;;;5106740;27;20209;-80
2023/07/23 09:00:01;;;;;;;4.30;3.90;;;20.70;99.90;;;;;;5104814;28;20256;-83
2023/07/23 09:02:29;;;;;;;5.10;4.70;;;20.80;99.90;;;;;;5105508;28;20299;-81
2023/07/23 09:04:56;;;;;;;4.63;4.10;;;20.90;99.90;;;;;;5105366;28;20206;-80
2023/07/23 09:07:25;;;;;;;4.50;4.20;;;21.00;99.90;;;;;;5113752;27;20237;-81
2023/07/23 09:09:51;;;;;;;4.28;3.88;;;21.10;99.90;;;;;;5125339;27;20206;-79
2023/07/23 09:12:18;;;;;;;4.32;4.03;;;21.10;99.90;;;;;;5125251;27;20202;-80
2023/07/23 09:14:46;;;;;;;4.15;3.83;;;21.20;99.90;;;;;;5124442;27;20216;-79
2023/07/23 09:17:21;;;;;;;3.72;3.50;;;21.30;99.90;;;;;;5125156;27;20352;-80
2023/07/23 09:19:48;;;;;;;4.10;3.75;;;21.30;99.90;;;;;;5112599;28;20296;-80
2023/07/23 09:22:17;;;;;;;4.63;4.20;;;21.30;99.90;;;;;;5104960;28;20230;-80
2023/07/23 09:24:46;;;;;;;3.63;3.33;;;21.40;99.90;;;;;;5104252;28;20212;-80
2023/07/23 09:27:12;;;;;;;6.90;4.50;;;21.40;99.90;;;;;;5104776;28;20333;-80
2023/07/23 09:29:42;;;;;;;4.70;4.10;;;21.60;99.90;;;;;;5103963;28;20245;-81
2023/07/23 09:32:23;;;;;;;4.47;3.80;;;21.60;99.90;;;;;;5104160;28;20214;-79
2023/07/23 09:34:50;;;;;;;4.90;3.92;;;21.70;99.90;;;;;;5110681;28;20187;-78
2023/07/23 09:37:17;;;;;;;4.22;3.85;;;21.80;99.90;;;;;;5104318;28;20212;-78
2023/07/23 09:39:45;;;;;;;4.30;4.00;;;21.80;99.90;;;;;;5105130;28;20202;-80
2023/07/23 09:42:12;;;;;;;4.05;3.75;;;21.90;99.90;;;;;;5107864;27;20236;-79
2023/07/23 09:44:39;;;;;;;4.20;3.80;;;22.00;99.90;;;;;;5120137;27;20286;-79
2023/07/23 09:47:07;;;;;;;4.22;3.88;;;22.00;99.90;;;;;;5119077;27;20226;-79
2023/07/23 09:49:34;;;;;;;4.95;4.45;;;22.00;99.90;;;;;;5119191;27;20576;-80
2023/07/23 09:52:07;;;;;;;4.70;3.97;;;22.00;99.90;;;;;;5109160;28;20300;-79
2023/07/23 09:54:35;;;;;;;4.68;4.28;;;22.10;99.90;;;;;;5109306;28;20313;-80
2023/07/23 09:57:05;;;;;;;4.38;4.07;;;22.10;99.90;;;;;;5108558;28;20301;-80
2023/07/23 09:59:32;;;;;;;4.13;3.83;;;22.20;99.90;;;;;;5108761;28;20242;-80
2023/07/23 10:02:00;;;;;;;4.90;3.95;;;22.20;99.90;;;;;;5108822;27;20230;-80
2023/07/23 10:04:29;;;;;;;4.70;4.32;;;22.30;99.90;;;;;;5108993;28;20231;-81
2023/07/23 10:06:56;;;;;;;6.70;4.25;;;22.50;99.90;;;;;;5113173;27;20220;-79
2023/07/23 10:09:24;;;;;;;5.70;4.07;;;22.60;99.90;;;;;;5129209;27;20205;-83
2023/07/23 10:11:51;;;;;;;3.97;3.67;;;22.70;99.90;;;;;;5128848;27;20205;-80
2023/07/23 10:14:19;;;;;;;7.57;4.25;;;22.70;99.90;;;;;;5128660;27;20212;-79
2023/07/23 10:16:47;;;;;;;4.85;4.43;;;22.80;99.90;;;;;;5129094;27;20292;-79
2023/07/23 10:19:15;;;;;;;4.70;4.18;;;22.90;99.90;;;;;;5120934;27;20310;-80
2023/07/23 10:21:48;;;;;;;6.38;4.30;;;22.90;99.90;;;;;;5108025;28;20222;-80
2023/07/23 10:24:16;;;;;;;4.18;3.85;;;23.00;99.90;;;;;;5110317;27;20202;-80
2023/07/23 10:26:44;;;;;;;4.18;3.78;;;23.00;99.90;;;;;;5128021;27;20307;-80
2023/07/23 10:29:12;;;;;;;4.03;3.72;;;23.00;99.90;;;;;;5128403;27;20325;-79
2023/07/23 10:31:42;;;;;;;4.22;3.90;;;23.00;99.90;;;;;;5128744;27;20205;-82
2023/07/23 10:34:41;;;;;;;4.43;4.10;;;23.20;99.90;;;;;;5128315;27;20215;-81
2023/07/23 10:37:12;;;;;;;3.95;3.65;;;23.20;99.90;;;;;;5112257;27;20732;-81
2023/07/23 10:39:40;;;;;;;4.38;4.00;;;23.30;99.90;;;;;;5108645;27;20657;-81
2023/07/23 10:42:07;;;;;;;4.95;4.30;;;23.40;99.90;;;;;;5139566;27;20314;-82
2023/07/23 10:44:34;;;;;;;4.15;3.85;;;23.50;99.90;;;;;;5119699;27;20198;-81
2023/07/23 10:47:40;;;;;;;4.15;3.78;;;23.60;99.90;;;;;;5107319;28;20241;-81
2023/07/23 10:50:10;;;;;;;4.40;4.10;;;23.70;99.90;;;;;;5107491;28;20293;-81
2023/07/23 10:52:38;;;;;;;4.40;4.00;;;23.70;99.90;;;;;;5124563;27;20222;-81
2023/07/23 10:55:05;;;;;;;4.85;4.05;;;23.70;99.90;;;;;;5113333;27;20293;-80
2023/07/23 10:57:37;;;;;;;5.25;4.13;;;23.80;99.90;;;;;;5108044;28;20806;-80
2023/07/23 11:00:18;;;;;;;6.80;4.70;;;23.80;99.90;;;;;;5108376;28;20264;-81
2023/07/23 11:02:48;;;;;;;5.95;3.80;;;23.80;99.90;;;;;;5117477;27;20217;-79
2023/07/23 11:05:15;;;;;;;4.90;4.32;;;23.80;99.90;;;;;;5128336;27;20878;-79
2023/07/23 11:07:42;;;;;;;4.45;3.78;;;24.00;99.90;;;;;;5128581;27;20288;-79
2023/07/23 11:10:22;;;;;;;4.15;3.85;;;24.10;99.90;;;;;;5114482;27;20218;-79
2023/07/23 11:12:49;;;;;;;3.97;3.65;;;24.30;99.90;;;;;;5107879;28;20325;-82
2023/07/23 11:15:17;;;;;;;4.05;3.75;;;24.30;99.90;;;;;;5107159;28;20212;-81
2023/07/23 11:17:44;;;;;;;5.50;3.97;;;24.40;99.90;;;;;;5107024;28;20216;-81
2023/07/23 11:20:13;;;;;;;4.53;4.18;;;24.40;99.90;;;;;;5123328;27;20683;-81
2023/07/23 11:22:43;;;;;;;5.03;3.90;;;24.40;99.90;;;;;;5128071;27;20319;-81
2023/07/23 11:25:16;;;;;;;4.10;3.80;;;24.50;99.90;;;;;;5127430;27;20209;-81
2023/07/23 11:27:43;;;;;;;3.72;3.45;;;24.50;99.90;;;;;;5127862;27;20635;-81
2023/07/23 11:30:14;;;;;;;4.93;4.10;;;24.60;99.90;;;;;;5114150;27;20629;-81
2023/07/23 11:32:42;;;;;;;3.65;3.35;;;24.90;99.90;;;;;;5106775;27;20217;-81
2023/07/23 11:35:10;;;;;;;5.75;3.58;;;25.10;99.90;;;;;;5106534;28;20304;-81
2023/07/23 11:37:47;;;;;;;3.70;3.40;;;25.40;98.80;;;;;;5133994;27;20308;-80
2023/07/23 11:40:20;;;;;;;3.80;3.40;;;25.40;99.00;;;;;;5127296;27;20200;-80
2023/07/23 11:42:47;;;;;;;7.63;3.30;;;25.40;98.50;;;;;;5127412;27;20332;-80
2023/07/23 11:45:14;;;;;;;3.00;2.80;;;25.50;97.30;;;;;;5127720;27;20776;-80
2023/07/23 11:47:48;;;;;;;2.70;2.50;;;25.60;97.20;;;;;;5127295;27;20235;-81
2023/07/23 11:50:15;;;;;;;3.65;3.33;;;25.70;97.10;;;;;;5112019;27;20217;-80
2023/07/23 11:52:43;;;;;;;3.35;3.15;;;25.80;96.60;;;;;;5124885;27;20741;-80
2023/07/23 11:55:20;;;;;;;5.65;3.15;;;25.90;95.50;;;;;;5126816;27;20205;-80
2023/07/23 11:57:52;;;;;;;3.20;2.90;;;26.00;95.90;;;;;;5127272;27;20193;-80
2023/07/23 12:00:25;;;;;;;3.15;2.95;;;26.10;95.70;;;;;;5126269;27;20235;-81
2023/07/23 12:02:53;;;;;;;3.75;3.20;;;26.10;96.00;;;;;;5125986;27;20313;-80
2023/07/23 12:05:20;;;;;;;5.50;3.60;;;26.10;97.10;;;;;;5127083;27;20209;-82
2023/07/23 12:07:49;;;;;;;5.00;3.30;;;26.20;96.00;;;;;;5127431;27;20209;-81
2023/07/23 12:10:17;;;;;;;3.38;3.15;;;26.30;95.90;;;;;;5128999;27;20787;-81
2023/07/23 12:12:45;;;;;;;4.43;3.38;;;26.20;96.50;;;;;;5127517;27;20209;-81
2023/07/23 12:15:14;;;;;;;3.45;3.25;;;26.20;95.60;;;;;;5127442;27;20212;-81
2023/07/23 12:17:41;;;;;;;3.60;3.25;;;26.30;95.60;;;;;;5128214;27;20209;-81
2023/07/23 12:20:10;;;;;;;3.38;3.08;;;26.20;95.80;;;;;;5112382;27;20210;-81
2023/07/23 12:22:51;;;;;;;4.13;3.30;;;26.20;96.20;;;;;;5113984;27;20221;-82
2023/07/23 12:25:18;;;;;;;3.42;3.13;;;26.10;95.60;;;;;;5126680;27;20200;-79
2023/07/23 12:27:45;;;;;;;4.53;3.08;;;26.10;96.00;;;;;;5126477;27;20238;-80
2023/07/23 12:30:12;;;;;;;3.63;3.13;;;26.10;96.10;;;;;;5126317;27;20293;-81
2023/07/23 12:32:39;;;;;;;3.75;2.50;;;26.10;94.50;;;;;;5121803;27;20297;-81
2023/07/23 12:35:07;;;;;;;2.80;2.70;;;26.00;94.20;;;;;;5108917;27;20206;-81
2023/07/23 12:37:35;;;;;;;5.15;3.03;;;26.00;93.80;;;;;;5106120;28;20209;-81
2023/07/23 12:40:05;;;;;;;3.47;2.85;;;26.00;93.50;;;;;;5105551;28;20213;-80
2023/07/23 12:42:32;;;;;;;2.67;2.50;;;26.10;93.80;;;;;;5105455;28;20312;-81
2023/07/23 12:44:59;;;;;;;3.35;2.92;;;26.20;93.60;;;;;;5105206;28;20232;-80
2023/07/23 12:47:27;;;;;;;2.75;2.58;;;26.20;93.40;;;;;;5110701;27;20207;-80
2023/07/23 12:49:56;;;;;;;5.07;2.80;;;26.30;93.70;;;;;;5126431;27;20938;-81
2023/07/23 12:52:23;;;;;;;2.80;2.55;;;26.30;94.10;;;;;;5106811;28;20202;-81